Time;durP1;ratioP1;P1;durP2;ratioP2;P2;SDS_P1;SDS_P2;PMS_P1;PMS_P2;Temp;Humidity;BMP_temperature;BMP_pressure;BME280_temperature;BME280_humidity;BME280_pressure;Samples;Min_cycle;Max_cycle;Signal;HPM_P1;HPM_P2
2021/07/17 00:01:38;;;;;;;4.57;3.40;;;;;;;23.73;56.06;94587.16;5023626;28;20252;-70
2021/07/17 00:04:05;;;;;;;7.00;3.50;;;;;;;23.84;56.11;94588.22;5024230;28;20588;-74
2021/07/17 00:06:47;;;;;;;5.03;3.90;;;;;;;22.80;59.17;94593.06;5011204;28;20201;-72
2021/07/17 00:09:14;;;;;;;4.40;3.50;;;;;;;23.33;57.51;94589.19;5024353;28;20289;-72
2021/07/17 00:11:41;;;;;;;5.40;3.70;;;;;;;23.41;57.47;94593.63;5023708;28;20229;-71
2021/07/17 00:14:08;;;;;;;4.67;3.57;;;;;;;23.01;58.99;94602.44;5023376;28;20197;-69
2021/07/17 00:16:35;;;;;;;3.70;3.37;;;;;;;23.43;57.16;94594.06;5028595;28;20220;-71
2021/07/17 00:19:04;;;;;;;6.97;4.10;;;;;;;23.14;58.59;94606.63;5030779;28;20217;-70
2021/07/17 00:21:31;;;;;;;7.03;4.47;;;;;;;23.07;58.87;94602.97;5029584;28;20206;-72
2021/07/17 00:23:58;;;;;;;5.80;4.30;;;;;;;23.36;58.24;94604.53;5021875;28;20210;-71
2021/07/17 00:26:25;;;;;;;7.00;4.17;;;;;;;23.13;58.81;94601.63;5010113;28;20754;-73
2021/07/17 00:28:51;;;;;;;4.33;3.90;;;;;;;23.05;59.17;94600.66;5018102;28;20641;-70
2021/07/17 00:31:18;;;;;;;7.87;4.20;;;;;;;22.96;59.42;94581.31;5029491;28;20754;-69
2021/07/17 00:33:46;;;;;;;6.07;4.40;;;;;;;22.87;59.94;94588.69;5029915;28;20193;-70
2021/07/17 00:36:13;;;;;;;5.33;4.00;;;;;;;22.79;59.89;94597.63;5029595;28;20193;-70
2021/07/17 00:38:40;;;;;;;6.10;4.93;;;;;;;22.61;60.52;94599.00;5030330;28;20278;-72
2021/07/17 00:41:06;;;;;;;6.03;3.97;;;;;;;22.73;60.50;94593.66;5028891;28;20237;-71
2021/07/17 00:43:33;;;;;;;5.97;3.70;;;;;;;22.74;60.23;94600.53;5029691;28;20201;-70
2021/07/17 00:46:00;;;;;;;5.53;3.80;;;;;;;22.87;60.04;94599.38;5029501;28;20205;-70
2021/07/17 00:48:28;;;;;;;5.97;3.90;;;;;;;22.70;60.50;94596.22;5029967;28;20604;-69
2021/07/17 00:50:55;;;;;;;4.73;3.80;;;;;;;22.41;61.50;94586.56;5028594;28;20691;-69
2021/07/17 00:53:22;;;;;;;6.57;3.60;;;;;;;22.48;60.87;94581.41;5020698;28;20186;-70
2021/07/17 00:55:51;;;;;;;4.70;3.30;;;;;;;22.19;62.39;94597.69;5025093;28;20267;-69
2021/07/17 00:58:26;;;;;;;10.23;3.93;;;;;;;22.55;61.41;94597.69;5029546;28;20223;-71
2021/07/17 01:00:55;;;;;;;7.77;4.20;;;;;;;22.92;59.96;94585.78;5012309;28;20715;-69
2021/07/17 01:03:24;;;;;;;4.77;3.50;;;;;;;23.03;59.52;94580.72;5017626;28;20193;-73
2021/07/17 01:05:52;;;;;;;5.67;3.67;;;;;;;23.10;58.93;94570.25;5029030;28;20209;-71
2021/07/17 01:08:20;;;;;;;3.80;3.50;;;;;;;23.08;59.26;94583.94;5029543;28;20204;-71
2021/07/17 01:10:47;;;;;;;4.17;3.87;;;;;;;23.25;58.51;94576.75;5028725;28;20223;-70
2021/07/17 01:13:14;;;;;;;6.53;3.50;;;;;;;23.34;58.32;94580.06;5028285;28;20198;-71
2021/07/17 01:15:42;;;;;;;6.70;3.90;;;;;;;23.22;58.33;94569.38;5029765;28;20201;-69
2021/07/17 01:18:09;;;;;;;6.47;4.00;;;;;;;23.33;58.20;94573.16;5029411;28;20201;-70
2021/07/17 01:20:38;;;;;;;6.33;4.13;;;;;;;23.45;57.97;94570.44;5019571;28;20194;-69
2021/07/17 01:23:07;;;;;;;4.73;3.90;;;;;;;23.45;57.73;94562.41;5012772;28;20204;-71
2021/07/17 01:25:34;;;;;;;4.60;3.50;;;;;;;23.45;57.73;94571.19;5033015;28;20276;-72
2021/07/17 01:28:03;;;;;;;4.50;3.73;;;;;;;23.71;57.50;94562.66;5033779;28;20293;-69
2021/07/17 01:30:33;;;;;;;9.20;3.83;;;;;;;23.62;57.52;94560.16;5032897;28;20594;-71
2021/07/17 01:33:01;;;;;;;6.80;3.80;;;;;;;23.69;56.81;94559.53;5033627;28;20204;-71
2021/07/17 01:35:28;;;;;;;5.63;3.60;;;;;;;23.70;56.25;94558.44;5032399;28;20193;-68
2021/07/17 01:37:55;;;;;;;6.50;3.90;;;;;;;23.77;56.28;94555.94;5033496;28;20203;-68
2021/07/17 01:40:23;;;;;;;4.83;3.53;;;;;;;23.68;57.11;94552.66;5032644;28;20243;-68
2021/07/17 01:42:53;;;;;;;4.37;3.47;;;;;;;23.60;57.23;94558.94;5032744;28;20320;-70
2021/07/17 01:45:32;;;;;;;4.60;4.10;;;;;;;23.76;56.63;94560.50;5033298;28;20205;-71
2021/07/17 01:47:59;;;;;;;6.17;4.23;;;;;;;23.69;56.70;94554.97;5032985;28;20209;-71
2021/07/17 01:50:28;;;;;;;5.53;4.10;;;;;;;23.44;57.64;94553.59;5032552;28;20217;-68
2021/07/17 01:52:55;;;;;;;6.40;4.60;;;;;;;23.48;57.40;94551.78;5032738;28;20201;-70
2021/07/17 01:55:22;;;;;;;6.23;4.43;;;;;;;23.39;57.81;94555.75;5032711;28;20197;-70
2021/07/17 01:57:49;;;;;;;6.63;4.77;;;;;;;23.37;57.89;94536.59;5033084;28;20196;-70
2021/07/17 02:00:19;;;;;;;9.13;5.30;;;;;;;23.54;57.78;94544.28;5032783;28;20208;-72
2021/07/17 02:02:46;;;;;;;10.40;5.40;;;;;;;23.54;57.38;94546.97;5032798;28;20185;-69
2021/07/17 02:05:15;;;;;;;7.33;5.20;;;;;;;23.54;57.20;94541.63;5033172;28;20255;-71
2021/07/17 02:07:43;;;;;;;7.17;5.40;;;;;;;23.49;57.58;94541.84;5031802;28;20280;-68
2021/07/17 02:10:22;;;;;;;6.47;4.87;;;;;;;23.64;56.87;94541.88;5019925;28;20933;-70
2021/07/17 02:13:15;;;;;;;9.03;4.97;;;;;;;23.52;57.36;94539.25;5033544;28;20211;-68
2021/07/17 02:15:45;;;;;;;7.27;5.80;;;;;;;23.36;57.90;94532.34;5032304;28;20211;-72
2021/07/17 02:18:14;;;;;;;7.47;5.40;;;;;;;23.40;57.94;94535.91;5029196;28;20684;-70
2021/07/17 02:20:42;;;;;;;8.70;5.77;;;;;;;23.26;58.15;94535.50;5022452;28;20204;-71
2021/07/17 02:23:10;;;;;;;10.40;6.47;;;;;;;23.29;58.13;94540.16;5031771;28;20201;-71
2021/07/17 02:25:37;;;;;;;8.20;6.30;;;;;;;23.21;58.00;94533.84;5032039;28;20288;-69
2021/07/17 02:28:05;;;;;;;8.17;5.67;;;;;;;23.22;57.61;94531.97;5018442;28;20557;-69
2021/07/17 02:30:32;;;;;;;5.93;5.33;;;;;;;23.20;56.90;94526.97;5031867;28;20227;-68
2021/07/17 02:32:59;;;;;;;9.23;6.07;;;;;;;23.13;56.77;94527.56;5032485;28;20203;-69
2021/07/17 02:35:26;;;;;;;6.93;6.00;;;;;;;23.13;56.61;94519.56;5025367;28;20723;-68
2021/07/17 02:37:53;;;;;;;12.37;7.43;;;;;;;23.03;56.12;94520.03;5032329;28;20185;-69
2021/07/17 02:40:20;;;;;;;11.03;6.73;;;;;;;22.97;55.85;94529.41;5031428;28;20254;-71
2021/07/17 02:42:47;;;;;;;11.73;7.10;;;;;;;22.88;55.12;94531.47;5031984;28;20225;-69
2021/07/17 02:45:14;;;;;;;13.43;7.27;;;;;;;22.94;54.63;94530.09;5031648;28;20255;-72
2021/07/17 02:47:41;;;;;;;16.63;8.20;;;;;;;22.97;53.90;94526.75;5031841;28;20204;-70
2021/07/17 02:50:09;;;;;;;14.13;8.77;;;;;;;23.00;53.70;94538.66;5031736;28;20197;-69
2021/07/17 02:52:36;;;;;;;12.73;9.03;;;;;;;22.74;53.95;94533.75;5017155;28;20232;-70
2021/07/17 02:55:04;;;;;;;13.83;9.43;;;;;;;22.66;54.95;94536.56;5031875;28;20221;-68
2021/07/17 02:57:31;;;;;;;15.00;10.87;;;;;;;22.81;55.47;94525.19;5030729;28;20300;-71
2021/07/17 02:59:59;;;;;;;16.90;11.03;;;;;;;22.71;57.14;94526.44;5019524;28;20268;-73
2021/07/17 03:02:27;;;;;;;16.17;12.00;;;;;;;22.64;57.89;94526.25;5031883;28;20198;-74
2021/07/17 03:04:54;;;;;;;14.60;11.73;;;;;;;22.64;58.40;94531.59;5031702;28;20189;-73
2021/07/17 03:07:21;;;;;;;13.80;10.47;;;;;;;22.66;59.18;94529.31;5031686;28;20291;-70
2021/07/17 03:09:48;;;;;;;13.50;10.80;;;;;;;22.58;59.37;94519.56;5017137;28;20653;-69
2021/07/17 03:12:15;;;;;;;13.10;10.90;;;;;;;22.55;59.69;94525.59;5021207;28;20225;-71
2021/07/17 03:14:42;;;;;;;16.17;11.87;;;;;;;22.75;59.40;94532.66;5032007;28;20201;-70
2021/07/17 03:17:12;;;;;;;20.70;13.40;;;;;;;22.66;59.60;94529.31;5026943;28;20198;-69
2021/07/17 03:19:39;;;;;;;17.20;12.20;;;;;;;22.55;60.32;94527.47;5026630;28;20202;-69
2021/07/17 03:22:07;;;;;;;20.17;13.23;;;;;;;22.66;60.18;94528.56;5033045;28;20284;-69
2021/07/17 03:24:34;;;;;;;18.17;13.03;;;;;;;22.69;59.40;94523.31;5035376;28;20206;-68
2021/07/17 03:27:01;;;;;;;16.20;12.47;;;;;;;22.51;60.08;94519.34;5033353;28;20190;-70
2021/07/17 03:29:28;;;;;;;15.27;10.70;;;;;;;22.67;59.78;94528.22;5021076;28;20246;-71
2021/07/17 03:31:55;;;;;;;21.73;12.23;;;;;;;22.67;60.15;94519.41;5034301;28;20227;-70
2021/07/17 03:34:23;;;;;;;20.33;12.13;;;;;;;22.81;59.80;94525.19;5034583;28;20204;-73
2021/07/17 03:36:50;;;;;;;23.20;12.47;;;;;;;22.68;60.17;94521.75;5037517;28;20193;-70
2021/07/17 03:39:17;;;;;;;20.53;13.17;;;;;;;22.71;60.41;94526.44;5030657;28;20631;-69
2021/07/17 03:41:44;;;;;;;23.20;13.10;;;;;;;22.79;60.16;94514.81;5030563;28;20225;-70
2021/07/17 03:44:11;;;;;;;22.13;13.43;;;;;;;22.80;60.09;94529.72;5031146;28;20200;-72
2021/07/17 03:46:38;;;;;;;17.77;12.63;;;;;;;22.80;60.28;94529.72;5030610;28;20896;-71
2021/07/17 03:49:05;;;;;;;23.50;13.33;;;;;;;22.84;60.35;94535.97;5031202;28;20201;-70
2021/07/17 03:51:33;;;;;;;27.07;12.47;;;;;;;22.86;60.22;94528.34;5030186;28;20224;-68
2021/07/17 03:54:00;;;;;;;22.70;11.50;;;;;;;22.79;60.48;94536.19;5030014;28;20185;-69
2021/07/17 03:56:27;;;;;;;14.93;10.47;;;;;;;22.71;60.61;94526.44;5017352;28;20288;-73
2021/07/17 03:58:54;;;;;;;21.43;11.20;;;;;;;22.82;60.30;94532.84;5031058;28;20758;-70
2021/07/17 04:01:21;;;;;;;15.67;10.43;;;;;;;23.05;59.75;94531.16;5029806;28;20675;-70
2021/07/17 04:03:50;;;;;;;13.80;10.87;;;;;;;23.01;59.26;94534.84;5019633;28;20276;-73
2021/07/17 04:06:17;;;;;;;19.23;11.27;;;;;;;22.88;59.34;94530.72;5024164;28;20202;-68
2021/07/17 04:08:44;;;;;;;18.13;9.83;;;;;;;22.90;59.88;94537.25;5020748;28;20205;-71
2021/07/17 04:11:11;;;;;;;16.30;10.60;;;;;;;22.80;59.63;94524.38;5029740;28;20585;-71
2021/07/17 04:13:38;;;;;;;18.60;10.90;;;;;;;22.62;60.35;94533.81;5021149;28;20678;-69
2021/07/17 04:16:05;;;;;;;14.53;9.50;;;;;;;22.72;59.99;94527.19;5023976;28;20197;-73
2021/07/17 04:18:32;;;;;;;13.13;9.50;;;;;;;22.76;59.65;94534.19;5016961;28;20189;-69
2021/07/17 04:20:59;;;;;;;10.13;8.87;;;;;;;22.73;59.17;94529.53;5017248;28;20198;-71
2021/07/17 04:23:26;;;;;;;14.17;8.33;;;;;;;22.80;59.10;94529.72;5024220;28;20206;-71
2021/07/17 04:25:54;;;;;;;10.23;8.03;;;;;;;22.76;58.94;94528.84;5024190;28;20197;-71
2021/07/17 04:28:20;;;;;;;10.20;7.63;;;;;;;22.85;58.57;94532.16;5026434;28;20186;-71
2021/07/17 04:30:48;;;;;;;11.30;6.80;;;;;;;22.91;58.01;94520.13;5028985;28;20299;-69
2021/07/17 04:33:15;;;;;;;10.60;7.90;;;;;;;22.93;58.15;94523.22;5027732;28;20197;-69
2021/07/17 04:35:42;;;;;;;8.70;7.07;;;;;;;23.01;57.78;94530.28;5025969;28;20185;-71
2021/07/17 04:38:09;;;;;;;10.23;6.67;;;;;;;23.17;57.46;94528.41;5027271;28;20197;-71
2021/07/17 04:40:36;;;;;;;7.47;6.37;;;;;;;23.13;57.68;94511.53;5028668;28;20197;-71
2021/07/17 04:43:03;;;;;;;10.33;6.50;;;;;;;23.42;57.08;94533.66;5027050;28;20264;-71
2021/07/17 04:45:30;;;;;;;9.77;7.67;;;;;;;23.35;57.16;94528.13;5029102;28;20201;-72
2021/07/17 04:47:57;;;;;;;7.67;6.90;;;;;;;23.20;56.55;94531.53;5029272;28;20762;-71
2021/07/17 04:50:24;;;;;;;9.17;7.10;;;;;;;23.23;56.26;94525.50;5029282;28;20189;-70
2021/07/17 04:52:51;;;;;;;11.90;7.30;;;;;;;23.27;56.54;94523.69;5029255;28;20270;-72
2021/07/17 04:55:18;;;;;;;11.17;6.90;;;;;;;23.33;56.50;94530.38;5028781;28;20759;-71
2021/07/17 04:57:45;;;;;;;10.70;7.30;;;;;;;23.29;56.32;94524.13;5011965;28;20197;-71
2021/07/17 05:00:13;;;;;;;9.73;7.43;;;;;;;23.34;55.73;94522.00;5009066;28;20197;-73
2021/07/17 05:02:46;;;;;;;12.93;7.33;;;;;;;23.44;55.71;94526.06;5023547;28;20755;-70
2021/07/17 05:05:16;;;;;;;14.83;8.00;;;;;;;23.45;55.42;94516.94;5027766;28;20208;-73
2021/07/17 05:07:47;;;;;;;12.67;8.37;;;;;;;23.48;55.63;94525.06;5028466;28;20228;-73
2021/07/17 05:10:17;;;;;;;11.50;7.10;;;;;;;23.51;55.71;94504.84;5028379;28;20221;-70
2021/07/17 05:12:45;;;;;;;10.00;7.37;;;;;;;23.65;55.32;94513.22;5027455;28;20246;-70
2021/07/17 05:15:13;;;;;;;11.10;7.60;;;;;;;23.60;54.84;94508.91;5008467;28;20297;-70
2021/07/17 05:17:40;;;;;;;14.93;7.23;;;;;;;23.80;54.15;94513.19;5009837;28;20200;-69
2021/07/17 05:20:09;;;;;;;10.97;7.87;;;;;;;23.93;54.17;94511.97;5028263;28;20201;-69
2021/07/17 05:22:36;;;;;;;13.17;7.03;;;;;;;23.92;53.76;94512.34;5029891;28;20196;-73
2021/07/17 05:25:05;;;;;;;14.87;7.57;;;;;;;24.06;53.35;94515.34;5028859;28;20197;-68
2021/07/17 05:27:31;;;;;;;14.63;8.70;;;;;;;24.17;53.04;94505.66;5029478;28;20201;-71
2021/07/17 05:30:02;;;;;;;15.20;8.10;;;;;;;24.23;52.92;94520.31;5028717;28;20212;-70
2021/07/17 05:32:29;;;;;;;12.50;8.40;;;;;;;24.08;52.98;94507.75;5020639;28;20209;-71
2021/07/17 05:34:56;;;;;;;16.70;7.23;;;;;;;24.03;52.30;94489.28;5019580;28;20201;-71
2021/07/17 05:37:24;;;;;;;13.97;7.20;;;;;;;23.97;53.26;94501.34;5029242;28;20217;-70
2021/07/17 05:39:51;;;;;;;16.70;8.57;;;;;;;23.99;53.85;94509.81;5029179;28;20197;-72
2021/07/17 05:42:18;;;;;;;13.17;7.00;;;;;;;24.11;54.14;94512.41;5028876;28;20271;-75
2021/07/17 05:44:45;;;;;;;26.13;20.10;;;;;;;24.41;53.06;94512.66;5026101;28;20304;-73
2021/07/17 05:47:13;;;;;;;11.80;7.20;;;;;;;24.45;52.86;94516.94;5028792;28;20305;-72
2021/07/17 05:49:40;;;;;;;12.63;7.60;;;;;;;24.49;52.68;94511.69;5028730;28;20577;-69
2021/07/17 05:52:07;;;;;;;23.73;18.70;;;;;;;24.30;53.92;94482.22;5029335;28;20661;-71
2021/07/17 05:54:34;;;;;;;21.67;18.10;;;;;;;24.64;52.84;94494.75;5029467;28;20197;-70
2021/07/17 05:57:02;;;;;;;31.47;24.90;;;;;;;24.77;52.61;94502.34;5018455;28;20626;-72
2021/07/17 05:59:29;;;;;;;59.27;50.07;;;;;;;24.91;52.00;94505.28;5012784;28;20280;-69
2021/07/17 06:01:56;;;;;;;22.80;15.80;;;;;;;24.99;52.33;94504.28;5029380;28;20229;-69
2021/07/17 06:04:24;;;;;;;26.20;22.20;;;;;;;25.06;51.59;94504.41;5026933;28;20216;-68
2021/07/17 06:06:51;;;;;;;22.20;17.60;;;;;;;25.04;52.15;94495.94;5009657;28;20307;-70
2021/07/17 06:09:18;;;;;;;16.27;9.93;;;;;;;25.13;50.68;94493.03;5025079;28;20711;-70
2021/07/17 06:11:45;;;;;;;46.60;35.43;;;;;;;25.02;50.88;94490.16;5032528;28;20217;-70
2021/07/17 06:14:12;;;;;;;54.70;48.80;;;;;;;25.47;49.70;94491.38;5032426;28;20189;-70
2021/07/17 06:16:39;;;;;;;29.73;26.57;;;;;;;25.41;46.75;94490.09;5031819;28;20282;-72
2021/07/17 06:19:06;;;;;;;12.67;7.17;;;;;;;25.39;47.03;94487.00;5032427;28;20201;-71
2021/07/17 06:21:33;;;;;;;9.83;6.43;;;;;;;25.81;46.29;94485.00;5015692;28;20222;-69
2021/07/17 06:24:00;;;;;;;14.17;6.00;;;;;;;25.52;45.98;94483.00;5013188;28;20190;-73
2021/07/17 06:26:27;;;;;;;9.80;5.40;;;;;;;26.02;45.27;94477.28;5027847;28;20292;-69
2021/07/17 06:28:54;;;;;;;10.97;5.57;;;;;;;26.15;45.09;94478.59;5031942;28;20197;-70
2021/07/17 06:31:21;;;;;;;12.67;9.67;;;;;;;26.26;43.78;94465.34;5031235;28;20181;-70
2021/07/17 06:33:49;;;;;;;90.53;66.23;;;;;;;26.42;43.92;94455.19;5029462;28;20590;-72
2021/07/17 06:36:18;;;;;;;15.73;11.07;;;;;;;26.25;43.22;94458.41;5032313;28;20284;-69
2021/07/17 06:38:45;;;;;;;36.90;32.10;;;;;;;26.54;42.40;94468.38;5032018;28;20197;-70
2021/07/17 06:41:15;;;;;;;7.47;4.63;;;;;;;26.78;41.13;94474.06;5018156;28;20674;-71
2021/07/17 06:43:42;;;;;;;12.57;4.43;;;;;;;26.57;40.88;94465.72;5031622;28;20272;-69
2021/07/17 06:46:09;;;;;;;9.07;4.50;;;;;;;26.61;41.49;94452.31;5030989;28;20679;-69
2021/07/17 06:48:36;;;;;;;80.07;71.70;;;;;;;26.84;41.91;94466.47;5031800;28;20197;-74
2021/07/17 06:51:02;;;;;;;30.40;23.40;;;;;;;26.67;40.27;94458.94;5030907;28;20201;-70
2021/07/17 06:53:37;;;;;;;29.87;26.90;;;;;;;26.85;41.58;94463.41;5031813;28;20224;-74
2021/07/17 06:56:04;;;;;;;7.93;5.60;;;;;;;27.10;41.46;94465.56;5028670;28;20200;-70
2021/07/17 06:58:31;;;;;;;12.63;4.60;;;;;;;27.25;39.63;94464.53;5031914;28;20284;-73
2021/07/17 07:00:58;;;;;;;8.73;4.67;;;;;;;27.21;39.11;94463.75;5031434;28;20185;-74
2021/07/17 07:03:26;;;;;;;54.83;49.43;;;;;;;27.03;37.61;94458.97;5031552;28;20659;-72
2021/07/17 07:05:53;;;;;;;23.80;21.23;;;;;;;27.39;37.57;94448.56;5031542;28;20275;-69
2021/07/17 07:08:20;;;;;;;10.80;5.53;;;;;;;26.98;36.71;94445.88;5025071;28;20193;-71
2021/07/17 07:10:47;;;;;;;10.40;4.27;;;;;;;27.28;37.01;94448.44;5026922;28;20292;-67
2021/07/17 07:13:16;;;;;;;12.10;3.83;;;;;;;27.42;37.05;94445.91;5030473;28;20679;-69
2021/07/17 07:15:44;;;;;;;6.53;3.50;;;;;;;27.45;36.52;94449.75;5030117;28;20212;-71
2021/07/17 07:18:13;;;;;;;8.00;3.50;;;;;;;27.44;36.98;94451.69;5030595;28;20232;-71
2021/07/17 07:20:41;;;;;;;11.20;4.23;;;;;;;27.63;37.08;94442.59;5030629;28;20197;-69
2021/07/17 07:23:08;;;;;;;9.27;4.37;;;;;;;27.54;35.87;94440.22;5031055;28;20200;-65
2021/07/17 07:25:35;;;;;;;13.17;3.80;;;;;;;27.55;36.42;94446.41;5031323;28;20710;-66
2021/07/17 07:28:02;;;;;;;12.47;3.50;;;;;;;27.65;36.45;94454.53;5031126;28;20205;-68
2021/07/17 07:30:30;;;;;;;9.00;3.70;;;;;;;27.78;36.67;94447.72;5022734;28;20238;-68
2021/07/17 07:32:57;;;;;;;9.43;3.80;;;;;;;27.73;36.14;94447.28;5032744;28;20209;-68
2021/07/17 07:35:26;;;;;;;7.03;3.97;;;;;;;27.80;36.70;94444.66;5027718;28;20205;-65
2021/07/17 07:37:54;;;;;;;11.57;3.97;;;;;;;27.83;36.08;94441.19;5032432;28;20247;-68
2021/07/17 07:40:25;;;;;;;8.27;3.73;;;;;;;27.87;36.09;94447.38;5032389;28;20232;-67
2021/07/17 07:42:53;;;;;;;7.97;3.80;;;;;;;27.93;35.77;94456.69;5031682;28;20228;-68
2021/07/17 07:45:20;;;;;;;10.17;3.63;;;;;;;27.76;34.99;94460.00;5033077;28;20197;-68
2021/07/17 07:47:48;;;;;;;8.53;3.40;;;;;;;27.60;34.77;94451.44;5034867;28;20251;-68
2021/07/17 07:50:16;;;;;;;9.57;3.57;;;;;;;28.07;36.01;94456.78;5034431;28;20189;-69
2021/07/17 07:52:44;;;;;;;7.77;3.70;;;;;;;28.22;36.34;94457.63;5032198;28;20232;-66
2021/07/17 07:55:15;;;;;;;13.97;4.03;;;;;;;28.30;35.72;94462.69;5022283;28;20285;-69
2021/07/17 07:57:42;;;;;;;43.87;38.90;;;;;;;28.35;35.15;94446.16;5030017;28;20198;-69
2021/07/17 08:00:13;;;;;;;59.73;41.30;;;;;;;28.44;35.61;94459.28;5034772;28;20193;-67
2021/07/17 08:02:55;;;;;;;12.27;4.37;;;;;;;28.53;34.76;94452.44;5027433;28;20225;-69
2021/07/17 08:05:24;;;;;;;12.23;4.17;;;;;;;28.44;34.86;94446.59;5013012;28;20198;-70
2021/07/17 08:07:53;;;;;;;15.23;4.17;;;;;;;28.19;34.31;94448.38;5029440;28;20235;-69
2021/07/17 08:10:20;;;;;;;7.63;4.03;;;;;;;28.49;34.94;94435.44;5032235;28;20675;-68
2021/07/17 08:12:47;;;;;;;13.47;4.13;;;;;;;28.90;35.51;94452.16;5030581;28;20231;-70
2021/07/17 08:15:15;;;;;;;7.73;3.80;;;;;;;28.88;34.13;94447.16;5029221;28;20236;-71
2021/07/17 08:17:42;;;;;;;12.47;3.90;;;;;;;28.74;34.62;94439.00;5029574;28;20188;-70
2021/07/17 08:20:12;;;;;;;9.83;3.80;;;;;;;28.90;33.75;94439.44;5029318;28;20292;-70
2021/07/17 08:22:40;;;;;;;10.37;3.67;;;;;;;29.04;33.82;94448.72;5029251;28;20567;-70
2021/07/17 08:25:08;;;;;;;8.90;3.50;;;;;;;28.69;33.79;94442.06;5029835;28;20201;-69
2021/07/17 08:27:36;;;;;;;11.53;4.13;;;;;;;29.06;34.12;94436.41;5027793;28;20189;-70
2021/07/17 08:30:04;;;;;;;15.43;4.00;;;;;;;29.06;33.15;94438.31;5029293;28;20274;-68
2021/07/17 08:32:31;;;;;;;42.27;37.87;;;;;;;29.12;32.96;94426.81;5028944;28;20216;-69
2021/07/17 08:34:59;;;;;;;70.23;63.27;;;;;;;29.10;34.01;94420.22;5024911;28;20691;-71
2021/07/17 08:37:25;;;;;;;31.13;23.57;;;;;;;29.38;32.80;94415.63;5029436;28;20203;-70
2021/07/17 08:39:52;;;;;;;7.33;4.73;;;;;;;29.34;32.15;94398.66;5029255;28;20205;-70
2021/07/17 08:42:21;;;;;;;21.73;4.40;;;;;;;29.58;32.22;94413.31;5025571;28;20328;-69
2021/07/17 08:44:49;;;;;;;12.37;3.73;;;;;;;29.49;32.46;94411.00;5024993;28;20582;-69
2021/07/17 08:47:16;;;;;;;10.70;3.80;;;;;;;29.74;31.47;94402.91;5028880;28;20192;-71
2021/07/17 08:49:44;;;;;;;10.23;3.53;;;;;;;29.74;30.12;94405.63;5029303;28;20662;-74
2021/07/17 08:52:11;;;;;;;4.53;3.03;;;;;;;29.63;30.24;94399.44;5028953;28;20667;-71
2021/07/17 08:54:42;;;;;;;10.03;3.07;;;;;;;29.75;29.96;94407.16;5029228;28;20508;-70
2021/07/17 08:57:10;;;;;;;11.17;3.50;;;;;;;29.80;30.89;94398.66;5030044;28;20239;-70
2021/07/17 08:59:39;;;;;;;18.23;14.37;;;;;;;29.98;30.09;94394.00;5028573;28;20197;-68
2021/07/17 09:02:07;;;;;;;11.37;8.00;;;;;;;30.07;30.78;94393.59;5020885;28;20247;-68
2021/07/17 09:04:36;;;;;;;9.03;3.10;;;;;;;29.44;29.28;94397.13;5029460;28;20251;-74
2021/07/17 09:07:03;;;;;;;7.53;3.47;;;;;;;29.73;29.38;94391.34;5029866;28;20197;-73
2021/07/17 09:09:36;;;;;;;6.60;3.17;;;;;;;29.77;29.76;94385.94;5029833;28;20247;-72
2021/07/17 09:12:23;;;;;;;10.70;3.50;;;;;;;30.03;30.90;94399.00;5031534;28;20259;-75
2021/07/17 09:14:51;;;;;;;8.50;3.03;;;;;;;30.04;30.35;94386.25;5031046;28;20235;-72
2021/07/17 09:17:26;;;;;;;8.90;3.03;;;;;;;30.36;29.02;94387.72;5028873;28;20265;-75
2021/07/17 09:19:59;;;;;;;8.00;3.20;;;;;;;30.38;28.88;94371.09;5030239;28;20578;-74
2021/07/17 09:22:36;;;;;;;14.30;3.87;;;;;;;30.31;28.37;94390.81;5021764;28;20205;-71
2021/07/17 09:25:14;;;;;;;13.43;3.50;;;;;;;30.50;27.91;94370.66;5030503;28;20746;-72
2021/07/17 09:27:41;;;;;;;25.93;18.47;;;;;;;30.39;28.39;94372.63;5030972;28;20304;-75
2021/07/17 09:30:26;;;;;;;16.17;9.83;;;;;;;30.44;27.74;94378.41;5033259;28;20203;-71
2021/07/17 09:32:57;;;;;;;9.53;3.73;;;;;;;30.59;28.64;94379.09;5025295;28;20736;-74
2021/07/17 09:35:25;;;;;;;13.90;4.33;;;;;;;30.74;28.86;94370.53;5029260;28;20209;-71
2021/07/17 09:37:56;;;;;;;11.73;3.50;;;;;;;30.95;28.84;94363.47;5029573;28;20727;-72
2021/07/17 09:40:24;;;;;;;8.33;3.47;;;;;;;30.88;27.87;94365.06;5029507;28;20232;-72
2021/07/17 09:42:52;;;;;;;10.17;3.30;;;;;;;30.52;27.30;94369.09;5028855;28;20237;-74
2021/07/17 09:45:36;;;;;;;13.27;3.63;;;;;;;30.81;27.88;94356.22;5033094;28;20232;-69
2021/07/17 09:48:33;;;;;;;13.23;3.30;;;;;;;31.15;28.71;94367.22;5033574;28;20199;-70
2021/07/17 09:51:01;;;;;;;11.77;3.47;;;;;;;31.28;28.26;94365.53;5033007;28;20193;-71
2021/07/17 09:53:42;;;;;;;11.20;3.30;;;;;;;31.52;28.35;94353.75;5032908;28;20221;-76
2021/07/17 09:56:15;;;;;;;18.50;3.50;;;;;;;31.45;28.31;94348.41;5019265;28;20280;-74
2021/07/17 09:58:42;;;;;;;10.90;3.47;;;;;;;31.22;27.62;94346.25;5022307;28;20194;-74
2021/07/17 10:01:22;;;;;;;11.90;3.30;;;;;;;31.32;28.00;94341.91;5017416;28;20667;-75
2021/07/17 10:03:53;;;;;;;13.33;3.90;;;;;;;31.50;27.40;94356.09;5032710;28;20216;-73
2021/07/17 10:06:32;;;;;;;10.50;3.80;;;;;;;31.05;27.18;94360.69;5015108;28;20201;-79
2021/07/17 10:09:06;;;;;;;11.23;6.43;;;;;;;31.31;26.67;94362.81;5028530;28;20578;-77
2021/07/17 10:11:34;;;;;;;20.63;10.83;;;;;;;31.29;27.21;94340.00;5032577;28;20232;-69
2021/07/17 10:14:18;;;;;;;15.60;4.00;;;;;;;31.62;27.17;94358.31;5032178;28;20323;-75
2021/07/17 10:16:49;;;;;;;18.67;3.70;;;;;;;31.68;26.59;94359.41;5033147;28;20592;-75
2021/07/17 10:19:18;;;;;;;8.87;2.73;;;;;;;31.81;25.82;94344.19;5032441;28;20219;-71
2021/07/17 10:21:47;;;;;;;10.10;3.00;;;;;;;31.84;27.11;94337.97;5033042;28;20212;-77
2021/07/17 10:24:15;;;;;;;10.47;3.23;;;;;;;32.00;26.13;94340.91;5020915;28;20290;-75
2021/07/17 10:26:42;;;;;;;6.07;3.00;;;;;;;32.04;24.66;94341.66;5032013;28;20659;-73
2021/07/17 10:29:11;;;;;;;21.53;9.93;;;;;;;32.25;25.37;94357.66;5032450;28;20276;-78
2021/07/17 10:31:40;;;;;;;8.43;4.87;;;;;;;32.44;25.20;94348.94;5029720;28;20284;-78
2021/07/17 10:34:07;;;;;;;6.77;3.00;;;;;;;32.30;24.89;94343.63;5021224;28;20209;-72
2021/07/17 10:36:39;;;;;;;7.37;3.60;;;;;;;32.33;25.21;94344.78;5032388;28;20208;-69
2021/07/17 10:39:09;;;;;;;10.10;3.13;;;;;;;32.39;25.18;94329.59;5029500;28;20205;-70
2021/07/17 10:41:41;;;;;;;6.13;3.23;;;;;;;32.52;25.63;94339.50;5031432;28;20586;-70
2021/07/17 10:44:08;;;;;;;10.43;3.40;;;;;;;32.46;24.77;94324.88;5030830;28;20218;-71
2021/07/17 10:46:39;;;;;;;6.37;2.93;;;;;;;32.67;24.88;94340.88;5031734;28;20189;-71
2021/07/17 10:49:09;;;;;;;7.87;3.10;;;;;;;32.08;24.32;94325.34;5032384;28;20316;-70
2021/07/17 10:51:50;;;;;;;5.03;2.90;;;;;;;32.42;24.27;94318.75;5031614;28;20205;-70
2021/07/17 10:54:28;;;;;;;14.10;5.90;;;;;;;32.57;24.23;94319.31;5031425;28;20284;-73
2021/07/17 10:56:55;;;;;;;9.67;5.93;;;;;;;33.00;23.62;94309.41;5031231;28;20195;-70
2021/07/17 10:59:22;;;;;;;11.57;7.53;;;;;;;33.23;24.05;94305.94;5029246;28;20707;-70
2021/07/17 11:02:04;;;;;;;5.20;2.90;;;;;;;33.07;23.36;94308.50;5020788;28;20200;-70
2021/07/17 11:04:54;;;;;;;8.77;3.47;;;;;;;33.45;24.44;94307.13;5031569;28;20254;-69
2021/07/17 11:07:21;;;;;;;9.07;2.70;;;;;;;33.52;23.20;94298.88;5032122;28;20193;-71
2021/07/17 11:10:09;;;;;;;9.43;3.30;;;;;;;33.69;24.17;94295.81;5031204;28;20631;-72
2021/07/17 11:12:43;;;;;;;12.63;2.90;;;;;;;33.67;23.23;94298.19;5030336;28;20595;-70
2021/07/17 11:15:09;;;;;;;5.43;3.03;;;;;;;33.86;23.09;94293.16;5031302;28;20505;-72
2021/07/17 11:17:43;;;;;;;6.90;3.27;;;;;;;33.38;23.78;94288.97;5031829;28;20613;-71
2021/07/17 11:20:25;;;;;;;9.07;2.77;;;;;;;33.45;23.62;94291.59;5030877;28;20292;-72
2021/07/17 11:23:03;;;;;;;7.20;2.97;;;;;;;33.68;22.99;94277.22;5031183;28;20220;-71
2021/07/17 11:25:31;;;;;;;7.30;3.30;;;;;;;34.05;22.87;94263.28;5018460;28;20208;-73
2021/07/17 11:27:58;;;;;;;13.17;3.60;;;;;;;33.94;22.65;94281.75;5031371;28;20577;-69
2021/07/17 11:30:31;;;;;;;8.27;2.80;;;;;;;33.94;22.20;94270.13;5030642;28;20335;-72
2021/07/17 11:33:04;;;;;;;2.90;2.47;;;;;;;34.19;22.20;94267.66;5031998;28;20241;-71
2021/07/17 11:35:37;;;;;;;6.57;3.30;;;;;;;34.26;22.89;94271.00;5026211;28;20290;-70